Time;durP1;ratioP1;P1;durP2;ratioP2;P2;SDS_P1;SDS_P2;PMS_P1;PMS_P2;Temp;Humidity;BMP_temperature;BMP_pressure;BME280_temperature;BME280_humidity;BME280_pressure;Samples;Min_cycle;Max_cycle;Signal;HPM_P1;HPM_P2
2022/03/23 00:00:52;;;;;;;48.20;32.40;;;6.20;99.90;;;;;;5043833;28;21309;-65
2022/03/23 00:03:18;;;;;;;54.65;32.60;;;6.20;99.90;;;;;;5044406;28;20058;-65
2022/03/23 00:05:44;;;;;;;62.97;39.67;;;6.10;99.90;;;;;;5044619;28;20049;-65
2022/03/23 00:08:10;;;;;;;61.55;38.75;;;6.20;99.90;;;;;;5045519;28;20041;-65
2022/03/23 00:10:36;;;;;;;65.93;40.63;;;6.20;99.90;;;;;;5040192;28;20072;-65
2022/03/23 00:13:03;;;;;;;52.35;34.83;;;6.40;99.90;;;;;;5032290;28;20124;-65
2022/03/23 00:15:30;;;;;;;53.25;35.30;;;6.30;99.90;;;;;;5044506;28;20056;-65
2022/03/23 00:17:56;;;;;;;48.97;32.63;;;6.30;99.90;;;;;;5077419;28;20099;-64
2022/03/23 00:20:22;;;;;;;48.42;31.08;;;6.40;99.90;;;;;;5045679;28;20057;-65
2022/03/23 00:22:48;;;;;;;51.95;34.10;;;6.40;99.90;;;;;;5043682;28;20169;-64
2022/03/23 00:25:14;;;;;;;57.10;36.60;;;6.40;99.90;;;;;;5044490;28;20051;-64
2022/03/23 00:27:40;;;;;;;61.35;39.33;;;6.30;99.90;;;;;;5043584;28;20485;-64
2022/03/23 00:30:06;;;;;;;69.22;41.42;;;6.30;99.90;;;;;;5044843;28;20040;-65
2022/03/23 00:32:32;;;;;;;72.20;42.60;;;6.30;99.90;;;;;;5045162;28;20038;-65
2022/03/23 00:34:58;;;;;;;52.88;35.30;;;6.30;99.90;;;;;;5043163;28;20047;-65
2022/03/23 00:37:24;;;;;;;60.60;36.65;;;6.30;99.90;;;;;;5044228;28;20059;-65
2022/03/23 00:39:50;;;;;;;53.85;34.03;;;6.40;99.90;;;;;;5043803;28;20065;-65
2022/03/23 00:42:16;;;;;;;46.75;31.02;;;6.40;99.90;;;;;;5040189;28;20041;-65
2022/03/23 00:44:42;;;;;;;51.13;33.03;;;6.30;99.90;;;;;;5044641;28;20109;-65
2022/03/23 00:47:09;;;;;;;57.35;38.63;;;6.00;99.90;;;;;;5044296;28;20113;-65
2022/03/23 00:49:36;;;;;;;64.20;38.35;;;6.10;99.90;;;;;;5043835;28;20041;-65
2022/03/23 00:52:04;;;;;;;66.22;42.22;;;6.10;99.90;;;;;;5042874;28;20057;-65
2022/03/23 00:54:30;;;;;;;75.80;44.42;;;6.10;99.90;;;;;;5070710;28;20041;-65
2022/03/23 00:56:56;;;;;;;79.97;45.72;;;6.10;99.90;;;;;;5045479;28;20053;-65
2022/03/23 00:59:22;;;;;;;75.07;44.45;;;6.30;99.90;;;;;;5042849;28;20069;-65
2022/03/23 01:01:48;;;;;;;49.63;35.00;;;6.20;99.90;;;;;;5044510;28;20041;-65
2022/03/23 01:04:14;;;;;;;52.35;34.65;;;6.30;99.90;;;;;;5043199;28;20073;-64
2022/03/23 01:06:41;;;;;;;75.35;46.50;;;6.30;99.90;;;;;;5042988;28;20045;-64
2022/03/23 01:09:07;;;;;;;53.05;35.28;;;6.30;99.90;;;;;;5039808;28;20071;-64
2022/03/23 01:11:33;;;;;;;46.97;30.40;;;6.10;99.90;;;;;;5039780;28;20042;-64
2022/03/23 01:13:59;;;;;;;50.70;33.22;;;5.90;99.90;;;;;;5075156;28;20045;-64
2022/03/23 01:16:25;;;;;;;59.22;38.85;;;5.80;99.90;;;;;;5042967;28;20057;-64
2022/03/23 01:18:50;;;;;;;74.30;43.30;;;5.60;99.90;;;;;;5044021;28;20045;-64
2022/03/23 01:21:16;;;;;;;70.47;42.28;;;5.60;99.90;;;;;;5046104;28;20075;-64
2022/03/23 01:23:43;;;;;;;60.63;37.47;;;5.70;99.90;;;;;;5045542;28;20132;-65
2022/03/23 01:26:09;;;;;;;70.53;44.00;;;5.80;99.90;;;;;;5043722;28;20046;-65
2022/03/23 01:28:35;;;;;;;69.18;43.05;;;5.70;99.90;;;;;;5075871;28;20980;-65
2022/03/23 01:31:01;;;;;;;80.00;46.72;;;5.70;99.90;;;;;;5040769;28;20049;-65
2022/03/23 01:33:27;;;;;;;81.35;47.17;;;5.80;99.90;;;;;;5043176;28;20091;-66
2022/03/23 01:35:53;;;;;;;63.88;40.55;;;5.70;99.90;;;;;;5041438;28;20064;-65
2022/03/23 01:38:18;;;;;;;63.53;39.83;;;5.70;99.90;;;;;;5044237;28;20105;-65
2022/03/23 01:40:44;;;;;;;51.58;33.83;;;5.80;99.90;;;;;;5044159;28;20077;-65
2022/03/23 01:43:10;;;;;;;52.03;34.45;;;5.70;99.90;;;;;;5046885;28;20045;-65
2022/03/23 01:45:35;;;;;;;69.70;41.63;;;5.50;99.90;;;;;;5044285;28;20045;-64
2022/03/23 01:48:01;;;;;;;61.40;40.08;;;5.40;99.90;;;;;;5078496;28;20103;-64
2022/03/23 01:50:27;;;;;;;69.25;41.40;;;5.40;99.90;;;;;;5047563;28;20041;-65
2022/03/23 01:52:53;;;;;;;64.80;40.88;;;5.50;99.90;;;;;;5080008;28;20054;-65
2022/03/23 01:55:20;;;;;;;65.25;39.92;;;5.50;99.90;;;;;;5047726;28;20033;-65
2022/03/23 01:57:49;;;;;;;55.92;35.60;;;5.40;99.90;;;;;;5044597;28;20052;-65
2022/03/23 02:00:16;;;;;;;67.03;40.90;;;5.30;99.90;;;;;;5041544;28;20049;-65
2022/03/23 02:02:43;;;;;;;64.80;39.05;;;5.10;99.90;;;;;;5046142;28;20053;-65
2022/03/23 02:05:10;;;;;;;67.75;40.40;;;5.10;99.90;;;;;;5044216;28;20056;-64
2022/03/23 02:07:36;;;;;;;78.05;44.97;;;5.20;99.90;;;;;;5043901;28;20049;-65
2022/03/23 02:10:04;;;;;;;54.05;34.05;;;5.10;99.90;;;;;;5042826;28;20050;-65
2022/03/23 02:12:30;;;;;;;47.95;32.33;;;5.10;99.90;;;;;;5045813;28;20555;-65
2022/03/23 02:15:08;;;;;;;53.47;35.35;;;5.00;99.90;;;;;;5047001;28;20033;-65
2022/03/23 02:17:34;;;;;;;65.80;39.35;;;5.00;99.90;;;;;;5042133;28;20061;-64
2022/03/23 02:20:01;;;;;;;64.25;40.30;;;5.00;99.90;;;;;;5045469;28;20050;-65
2022/03/23 02:22:26;;;;;;;49.70;34.35;;;4.90;99.90;;;;;;5049146;28;20056;-65
2022/03/23 02:24:52;;;;;;;58.42;37.42;;;4.90;99.90;;;;;;5044563;28;20041;-66
2022/03/23 02:27:18;;;;;;;58.10;36.22;;;4.90;99.90;;;;;;5046259;28;20060;-65
2022/03/23 02:29:44;;;;;;;64.30;40.03;;;4.70;99.90;;;;;;5028771;28;20055;-65
2022/03/23 02:32:12;;;;;;;64.13;41.08;;;4.70;99.90;;;;;;5047601;28;20045;-64
2022/03/23 02:34:37;;;;;;;72.15;44.35;;;4.70;99.90;;;;;;5047571;28;20096;-64
2022/03/23 02:37:03;;;;;;;74.63;43.28;;;4.80;99.90;;;;;;5042868;28;20041;-64
2022/03/23 02:39:29;;;;;;;76.00;45.85;;;4.80;99.90;;;;;;5044975;28;20041;-64
2022/03/23 02:41:56;;;;;;;75.93;46.30;;;4.80;99.90;;;;;;5060073;28;20055;-64
2022/03/23 02:44:23;;;;;;;71.82;43.40;;;4.80;99.90;;;;;;5045419;28;20049;-64
2022/03/23 02:46:49;;;;;;;86.65;50.00;;;5.00;99.90;;;;;;5045559;28;20049;-64
2022/03/23 02:49:18;;;;;;;87.35;51.55;;;4.90;99.90;;;;;;5043404;28;20037;-64
2022/03/23 02:51:44;;;;;;;96.55;54.20;;;5.00;99.90;;;;;;5046531;28;20037;-64
2022/03/23 03:02:36;;;;;;;75.47;44.83;;;5.00;99.90;;;;;;5046372;28;20075;-64
2022/03/23 03:05:07;;;;;;;65.43;40.83;;;5.00;99.90;;;;;;5042229;28;20397;-64
2022/03/23 03:10:19;;;;;;;68.97;43.33;;;5.00;99.90;;;;;;5046122;28;20084;-64
2022/03/23 03:12:45;;;;;;;88.90;52.25;;;5.00;99.90;;;;;;5045274;28;20042;-64
2022/03/23 03:15:11;;;;;;;75.25;47.42;;;5.00;99.90;;;;;;5045409;28;20716;-64
2022/03/23 03:17:37;;;;;;;65.43;42.03;;;5.00;99.90;;;;;;5045397;28;20049;-64
2022/03/23 03:20:04;;;;;;;65.18;39.97;;;5.00;99.90;;;;;;5044105;28;20069;-64
2022/03/23 03:22:38;;;;;;;68.22;40.03;;;5.00;99.90;;;;;;5050202;28;20049;-64
2022/03/23 03:25:05;;;;;;;67.68;41.47;;;4.90;99.90;;;;;;5039191;28;20073;-64
2022/03/23 03:27:35;;;;;;;54.88;35.67;;;4.80;99.90;;;;;;5078295;28;20045;-64
2022/03/23 03:30:05;;;;;;;54.47;35.60;;;4.70;99.90;;;;;;5046089;28;20064;-64
2022/03/23 03:32:31;;;;;;;;;;;4.50;99.90;;;;;;5044758;28;20072;-64
2022/03/23 03:34:57;;;;;;;80.70;47.35;;;4.30;99.90;;;;;;5046357;28;20076;-64
2022/03/23 03:37:23;;;;;;;83.85;48.05;;;4.40;99.90;;;;;;5046027;28;20072;-64
2022/03/23 03:39:49;;;;;;;71.18;42.35;;;4.30;99.90;;;;;;5045249;28;20045;-64
2022/03/23 03:42:15;;;;;;;66.45;42.00;;;4.40;99.90;;;;;;5039830;28;20053;-64
2022/03/23 03:44:41;;;;;;;76.90;46.38;;;4.40;99.90;;;;;;5044247;28;20045;-64
2022/03/23 03:47:07;;;;;;;64.88;39.58;;;4.70;99.90;;;;;;5042402;28;20065;-64
2022/03/23 03:49:32;;;;;;;53.65;32.70;;;4.60;99.90;;;;;;5044571;28;20075;-64
2022/03/23 03:51:58;;;;;;;71.25;40.50;;;4.50;99.90;;;;;;5043240;28;20057;-64
2022/03/23 03:54:24;;;;;;;59.83;38.45;;;4.20;99.90;;;;;;5045433;28;20045;-64
2022/03/23 03:56:50;;;;;;;45.33;32.88;;;4.20;99.90;;;;;;5039498;28;20057;-64
2022/03/23 03:59:16;;;;;;;76.13;46.13;;;4.20;99.90;;;;;;5043818;28;20105;-64
2022/03/23 04:01:41;;;;;;;80.78;48.88;;;4.30;99.90;;;;;;5041127;28;20073;-64
2022/03/23 04:04:07;;;;;;;92.18;55.03;;;4.40;99.90;;;;;;5044075;28;20042;-64
2022/03/23 04:06:33;;;;;;;69.18;45.42;;;4.40;99.90;;;;;;5044167;28;20097;-64
2022/03/23 04:08:59;;;;;;;70.10;44.92;;;4.50;99.90;;;;;;5077522;28;20050;-64
2022/03/23 04:11:24;;;;;;;89.82;49.85;;;4.50;99.90;;;;;;5044473;28;20051;-64
2022/03/23 04:13:50;;;;;;;95.78;54.63;;;4.50;99.90;;;;;;5043062;28;20056;-64
2022/03/23 04:16:16;;;;;;;67.40;42.30;;;4.60;99.90;;;;;;5043906;28;20045;-64
2022/03/23 04:18:42;;;;;;;63.70;38.50;;;4.30;99.90;;;;;;5042412;28;20083;-64
2022/03/23 04:21:08;;;;;;;64.43;38.83;;;4.10;99.90;;;;;;5078042;28;20041;-64
2022/03/23 04:23:34;;;;;;;72.53;44.95;;;4.10;99.90;;;;;;5043780;28;20053;-64
2022/03/23 04:26:00;;;;;;;86.18;47.70;;;3.90;99.90;;;;;;5043398;28;20116;-65
2022/03/23 04:28:25;;;;;;;63.10;41.25;;;3.80;99.90;;;;;;5043533;28;20056;-65
2022/03/23 04:30:51;;;;;;;81.68;41.97;;;3.80;99.90;;;;;;5041648;28;20049;-65
2022/03/23 04:33:17;;;;;;;80.50;47.30;;;3.90;99.90;;;;;;5043256;28;20075;-65
2022/03/23 04:35:42;;;;;;;65.38;42.47;;;4.10;99.90;;;;;;5044621;28;20073;-65
2022/03/23 04:38:08;;;;;;;81.07;45.22;;;4.10;99.90;;;;;;5059932;28;20048;-65
2022/03/23 04:40:34;;;;;;;73.25;44.45;;;4.00;99.90;;;;;;5041701;28;20054;-65
2022/03/23 04:43:00;;;;;;;76.75;45.95;;;3.90;99.90;;;;;;5043375;28;20410;-65
2022/03/23 04:45:26;;;;;;;64.13;41.00;;;4.10;99.90;;;;;;5041604;28;20046;-65
2022/03/23 04:47:52;;;;;;;58.13;38.03;;;3.90;99.90;;;;;;5070628;28;20033;-65
2022/03/23 04:50:19;;;;;;;60.80;38.90;;;3.80;99.90;;;;;;5042029;28;20076;-65
2022/03/23 04:52:46;;;;;;;57.35;39.15;;;3.60;99.90;;;;;;5043328;28;20124;-65
2022/03/23 04:55:13;;;;;;;47.10;32.08;;;3.70;99.90;;;;;;5043453;28;20065;-64
2022/03/23 04:57:39;;;;;;;44.25;30.98;;;3.60;99.90;;;;;;5044918;28;20107;-64
2022/03/23 05:00:13;;;;;;;61.95;39.05;;;3.50;99.90;;;;;;5038911;28;20053;-64
2022/03/23 05:02:39;;;;;;;58.90;37.08;;;3.60;99.90;;;;;;5038894;28;20049;-64
2022/03/23 05:05:13;;;;;;;63.13;39.63;;;3.60;99.90;;;;;;5043969;28;20052;-64
2022/03/23 05:07:43;;;;;;;50.00;35.55;;;3.60;99.90;;;;;;5042769;28;20060;-64
2022/03/23 05:10:10;;;;;;;57.08;37.15;;;3.60;99.90;;;;;;5044309;28;20041;-64
2022/03/23 05:12:37;;;;;;;59.85;39.70;;;3.70;99.90;;;;;;5045869;28;20108;-65
2022/03/23 05:15:04;;;;;;;75.93;49.20;;;3.60;99.90;;;;;;5047787;28;20049;-64
2022/03/23 05:17:31;;;;;;;45.53;32.38;;;3.30;99.90;;;;;;5075550;28;20053;-65
2022/03/23 05:19:57;;;;;;;87.72;26.63;;;3.30;99.90;;;;;;5046501;28;20053;-64
2022/03/23 05:22:22;;;;;;;29.70;24.88;;;3.40;99.90;;;;;;5080268;28;20049;-65
2022/03/23 05:24:48;;;;;;;52.95;38.13;;;3.40;99.90;;;;;;5047217;28;20107;-66
2022/03/23 05:27:14;;;;;;;38.75;22.50;;;3.50;99.90;;;;;;5072892;28;20046;-66
2022/03/23 05:29:40;;;;;;;71.13;43.53;;;3.40;99.90;;;;;;5046049;28;20057;-66
2022/03/23 05:32:06;;;;;;;56.95;35.28;;;3.40;99.90;;;;;;5046038;28;20105;-66
2022/03/23 05:34:33;;;;;;;39.45;29.92;;;3.50;99.90;;;;;;5045766;28;20048;-66
2022/03/23 05:36:59;;;;;;;56.83;39.58;;;3.40;99.90;;;;;;5046121;28;20079;-65
2022/03/23 05:39:24;;;;;;;63.65;42.67;;;3.30;99.90;;;;;;5045857;28;20105;-65
2022/03/23 05:41:50;;;;;;;62.58;38.67;;;3.10;99.90;;;;;;5047967;28;20107;-65
2022/03/23 05:44:16;;;;;;;52.95;34.92;;;3.10;99.90;;;;;;5045905;28;20065;-64
2022/03/23 05:46:41;;;;;;;41.42;29.98;;;3.20;99.90;;;;;;5046132;28;20100;-64
2022/03/23 05:49:08;;;;;;;35.67;27.20;;;3.10;99.90;;;;;;5046755;28;20046;-64
2022/03/23 05:51:34;;;;;;;28.52;24.45;;;3.10;99.90;;;;;;5047942;28;20046;-64
2022/03/23 05:54:01;;;;;;;26.40;23.38;;;3.10;99.90;;;;;;5046823;28;20204;-64
2022/03/23 05:56:27;;;;;;;29.38;23.98;;;3.10;99.90;;;;;;5048464;28;20053;-64
2022/03/23 05:58:53;;;;;;;50.67;37.95;;;3.30;99.90;;;;;;5047010;28;20096;-64
2022/03/23 06:01:19;;;;;;;48.47;35.65;;;3.20;99.90;;;;;;5052830;28;20060;-64
2022/03/23 06:03:49;;;;;;;51.53;36.53;;;3.20;99.90;;;;;;5040824;28;20464;-64
2022/03/23 06:06:15;;;;;;;;;;;3.50;99.90;;;;;;5002472;28;20049;-64
2022/03/23 06:08:41;;;;;;;58.53;40.10;;;3.40;99.90;;;;;;5047009;28;19924;-64
2022/03/23 06:11:07;;;;;;;62.75;39.63;;;3.50;99.90;;;;;;5046185;28;20077;-64
2022/03/23 06:13:33;;;;;;;69.00;46.88;;;3.50;99.90;;;;;;5044910;28;20034;-64
2022/03/23 06:15:58;;;;;;;59.15;42.45;;;3.40;99.90;;;;;;5044885;28;20060;-63
2022/03/23 06:18:24;;;;;;;82.75;52.97;;;3.50;99.90;;;;;;5032413;28;20052;-66
2022/03/23 06:20:51;;;;;;;78.88;50.20;;;3.60;99.90;;;;;;5057891;28;20076;-66
2022/03/23 06:23:17;;;;;;;71.85;45.30;;;3.40;99.90;;;;;;5047526;28;20115;-66
2022/03/23 06:25:42;;;;;;;71.85;45.33;;;3.60;99.90;;;;;;5041807;28;20076;-65
2022/03/23 06:28:08;;;;;;;65.35;44.53;;;3.60;99.90;;;;;;5052268;28;20057;-65
2022/03/23 06:30:34;;;;;;;69.43;46.40;;;3.80;99.90;;;;;;5027548;28;20564;-67
2022/03/23 06:33:01;;;;;;;70.65;46.33;;;3.70;99.90;;;;;;5056299;28;20052;-66
2022/03/23 06:35:29;;;;;;;81.47;48.03;;;3.90;99.90;;;;;;5041921;28;20068;-66
2022/03/23 06:37:54;;;;;;;81.05;49.10;;;4.10;99.90;;;;;;5046999;28;20045;-66
2022/03/23 06:40:21;;;;;;;79.57;48.03;;;4.10;99.90;;;;;;5040630;28;20092;-65
2022/03/23 06:42:47;;;;;;;91.20;54.00;;;4.30;99.90;;;;;;5063345;28;20056;-65
2022/03/23 06:45:13;;;;;;;89.78;53.78;;;4.40;99.90;;;;;;5040062;28;20045;-65
2022/03/23 06:47:38;;;;;;;95.38;55.92;;;4.50;99.90;;;;;;5064446;28;20055;-65
2022/03/23 06:50:05;;;;;;;97.13;56.97;;;4.70;99.90;;;;;;5038248;28;20053;-65
2022/03/23 06:52:31;;;;;;;105.20;59.67;;;4.70;99.90;;;;;;5056293;28;20055;-65
2022/03/23 06:54:57;;;;;;;100.18;60.75;;;4.90;99.90;;;;;;5038575;28;20257;-65
2022/03/23 06:57:22;;;;;;;116.07;63.40;;;5.10;99.90;;;;;;5046090;28;20047;-67
2022/03/23 06:59:48;;;;;;;98.97;57.80;;;5.10;99.90;;;;;;5023173;28;20037;-65
2022/03/23 07:02:14;;;;;;;104.57;59.90;;;5.30;99.90;;;;;;5043706;28;20052;-65
2022/03/23 07:04:39;;;;;;;97.43;55.83;;;5.40;99.90;;;;;;5055168;28;20075;-65
2022/03/23 07:07:05;;;;;;;99.10;59.00;;;5.40;99.90;;;;;;5054653;28;20420;-65
2022/03/23 07:09:31;;;;;;;100.38;62.00;;;5.60;99.90;;;;;;5044237;28;20041;-66
2022/03/23 07:12:01;;;;;;;102.03;60.75;;;5.60;99.90;;;;;;5050454;28;20052;-66
2022/03/23 07:14:29;;;;;;;94.53;57.47;;;5.80;99.90;;;;;;5071348;28;20107;-66
2022/03/23 07:16:55;;;;;;;100.45;60.38;;;5.90;99.90;;;;;;5041874;28;20424;-66
2022/03/23 07:19:22;;;;;;;99.47;57.80;;;5.90;99.90;;;;;;5045278;28;20052;-63
2022/03/23 07:21:48;;;;;;;90.22;57.22;;;6.10;99.90;;;;;;5049220;28;20071;-63
2022/03/23 07:24:14;;;;;;;89.40;56.80;;;6.20;99.90;;;;;;5046706;28;20434;-63
2022/03/23 07:26:40;;;;;;;98.90;58.72;;;6.40;99.90;;;;;;5072182;28;20059;-63
2022/03/23 07:29:05;;;;;;;89.32;54.17;;;6.50;99.90;;;;;;5078911;28;20349;-64
2022/03/23 07:31:31;;;;;;;89.38;52.97;;;6.60;99.90;;;;;;5037387;28;20156;-65
2022/03/23 07:34:00;;;;;;;73.13;48.03;;;6.80;99.90;;;;;;5046151;28;20053;-65
2022/03/23 07:36:25;;;;;;;72.65;47.55;;;6.90;99.90;;;;;;5035358;28;20056;-65
2022/03/23 07:38:52;;;;;;;77.93;51.25;;;7.00;99.90;;;;;;5057760;28;20053;-64
2022/03/23 07:41:18;;;;;;;68.93;47.05;;;7.10;99.90;;;;;;5066271;28;20355;-64
2022/03/23 07:43:44;;;;;;;74.03;46.78;;;7.30;99.90;;;;;;5050120;28;20512;-63
2022/03/23 07:46:10;;;;;;;67.90;44.72;;;7.40;99.90;;;;;;5036110;28;20065;-64
2022/03/23 07:48:36;;;;;;;67.40;45.30;;;7.40;99.90;;;;;;5082834;28;20061;-63
2022/03/23 07:51:01;;;;;;;64.72;42.05;;;7.50;99.90;;;;;;5065344;28;20153;-63
2022/03/23 07:53:27;;;;;;;64.40;42.63;;;7.70;99.90;;;;;;5050214;28;20045;-64
2022/03/23 07:55:54;;;;;;;64.32;41.58;;;7.90;99.90;;;;;;5029078;28;20100;-65
2022/03/23 07:58:20;;;;;;;56.92;39.45;;;7.90;99.90;;;;;;5051338;28;20078;-67
2022/03/23 08:00:47;;;;;;;52.03;35.03;;;8.10;99.90;;;;;;5062137;28;20340;-67
2022/03/23 08:03:13;;;;;;;51.80;35.92;;;8.20;99.90;;;;;;5069284;28;20041;-65
2022/03/23 08:05:40;;;;;;;49.45;34.13;;;8.30;99.90;;;;;;5028036;28;20559;-66
2022/03/23 08:08:09;;;;;;;50.65;34.35;;;8.40;99.90;;;;;;5041295;28;20045;-64
2022/03/23 08:10:36;;;;;;;49.83;34.05;;;8.50;99.90;;;;;;5038415;28;20045;-65
2022/03/23 08:13:03;;;;;;;52.72;34.90;;;8.60;99.90;;;;;;5044236;28;20064;-66
2022/03/23 08:15:29;;;;;;;53.08;36.53;;;8.70;99.90;;;;;;5070428;28;20164;-79
2022/03/23 08:17:56;;;;;;;49.30;34.65;;;8.80;99.90;;;;;;5044146;28;20084;-75
2022/03/23 08:20:35;;;;;;;53.67;34.38;;;8.90;99.90;;;;;;5035838;28;20497;-74
2022/03/23 08:23:03;;;;;;;47.45;33.15;;;9.00;99.90;;;;;;5043753;28;20135;-72
2022/03/23 08:25:31;;;;;;;46.95;32.50;;;9.20;99.90;;;;;;5035882;28;20050;-71
2022/03/23 08:27:58;;;;;;;43.00;30.98;;;9.20;99.90;;;;;;5072948;28;20116;-71
2022/03/23 08:30:24;;;;;;;42.75;31.70;;;9.30;99.90;;;;;;5036498;28;20082;-70
2022/03/23 08:32:50;;;;;;;43.45;30.25;;;9.40;99.90;;;;;;5045903;28;20083;-69
2022/03/23 08:35:16;;;;;;;43.28;30.10;;;9.50;99.90;;;;;;5035219;28;20125;-68
2022/03/23 08:37:42;;;;;;;44.42;30.48;;;9.50;99.90;;;;;;5078429;28;20072;-69
2022/03/23 08:40:08;;;;;;;44.42;30.48;;;9.70;99.90;;;;;;5036549;28;20056;-69
2022/03/23 08:42:34;;;;;;;39.08;28.27;;;9.80;99.90;;;;;;5043121;28;20436;-69
2022/03/23 08:45:00;;;;;;;39.25;27.88;;;9.80;99.90;;;;;;5038466;28;20041;-69
2022/03/23 08:47:27;;;;;;;39.72;27.80;;;9.80;99.90;;;;;;5041912;28;20089;-69
2022/03/23 08:49:55;;;;;;;38.53;26.95;;;10.00;99.90;;;;;;5039681;28;20045;-69
2022/03/23 08:52:22;;;;;;;38.50;27.35;;;10.00;99.90;;;;;;5039962;28;20063;-69
2022/03/23 08:54:48;;;;;;;37.72;25.73;;;10.20;99.90;;;;;;5045301;28;20421;-68
2022/03/23 08:57:14;;;;;;;37.35;25.20;;;10.30;99.90;;;;;;5041478;28;20054;-69
2022/03/23 08:59:39;;;;;;;32.55;23.40;;;10.40;99.90;;;;;;5027658;28;20064;-69
2022/03/23 09:02:06;;;;;;;33.92;25.70;;;10.50;99.90;;;;;;5049262;28;20083;-70
2022/03/23 09:04:32;;;;;;;33.58;25.02;;;10.70;99.90;;;;;;5034065;28;20045;-70
2022/03/23 09:06:57;;;;;;;32.15;23.63;;;10.80;99.90;;;;;;5025537;28;20160;-69
2022/03/23 09:09:23;;;;;;;32.15;22.42;;;10.90;99.90;;;;;;5032534;28;20038;-69
2022/03/23 09:11:49;;;;;;;29.35;21.35;;;11.00;99.90;;;;;;5048691;28;20124;-69
2022/03/23 09:14:14;;;;;;;33.28;22.75;;;11.20;99.90;;;;;;5024646;28;20042;-70
2022/03/23 09:16:41;;;;;;;32.25;24.20;;;11.20;99.90;;;;;;5042614;28;20188;-70
2022/03/23 09:19:07;;;;;;;33.50;24.85;;;11.40;99.90;;;;;;5014944;28;20045;-70
2022/03/23 09:21:33;;;;;;;31.55;23.63;;;11.60;99.90;;;;;;5047728;28;20051;-69
2022/03/23 09:23:59;;;;;;;28.20;21.77;;;11.80;99.90;;;;;;5017918;28;20045;-69
2022/03/23 09:26:24;;;;;;;28.45;20.88;;;11.90;99.90;;;;;;5025758;28;20069;-69
2022/03/23 09:28:53;;;;;;;26.20;20.80;;;12.10;99.90;;;;;;5026820;28;20058;-69
2022/03/23 09:31:19;;;;;;;28.52;23.00;;;12.20;99.90;;;;;;5036550;28;20045;-69
2022/03/23 09:33:48;;;;;;;27.60;22.05;;;12.30;99.90;;;;;;5029228;28;20042;-69
2022/03/23 09:38:59;;;;;;;28.98;22.05;;;12.60;99.90;;;;;;5026482;28;20147;-69
2022/03/23 09:41:25;;;;;;;28.70;23.15;;;12.70;99.90;;;;;;5042331;28;20049;-73
2022/03/23 09:43:52;;;;;;;27.48;20.45;;;12.70;99.90;;;;;;5042576;28;20053;-74
2022/03/23 09:46:19;;;;;;;24.45;19.75;;;12.70;99.90;;;;;;5005946;28;20045;-72
2022/03/23 09:48:45;;;;;;;26.20;20.13;;;12.80;99.90;;;;;;5061354;28;20103;-68
2022/03/23 09:51:12;;;;;;;24.20;18.75;;;12.80;99.90;;;;;;5038530;28;20139;-70
2022/03/23 09:53:39;;;;;;;25.05;20.33;;;12.90;99.90;;;;;;5024599;28;20061;-70
2022/03/23 09:56:04;;;;;;;26.15;20.63;;;12.90;99.90;;;;;;5008823;28;20037;-70
2022/03/23 09:58:30;;;;;;;28.30;20.65;;;13.00;99.90;;;;;;5055721;28;20592;-71
2022/03/23 10:00:56;;;;;;;26.83;21.67;;;13.20;99.90;;;;;;5047085;28;20220;-71
2022/03/23 10:03:43;;;;;;;26.90;20.48;;;13.30;99.90;;;;;;5056695;28;20060;-71
2022/03/23 10:06:15;;;;;;;26.52;21.45;;;13.50;99.90;;;;;;5052047;28;20057;-72
2022/03/23 10:09:18;;;;;;;25.73;20.42;;;13.50;99.90;;;;;;5033546;28;20053;-70
2022/03/23 10:12:08;;;;;;;24.70;20.58;;;13.60;99.90;;;;;;5039408;28;20053;-69
2022/03/23 10:14:52;;;;;;;28.48;21.85;;;13.70;99.90;;;;;;5018605;28;20230;-69
2022/03/23 10:17:52;;;;;;;29.73;22.60;;;13.70;99.60;;;;;;5044453;28;20067;-69
2022/03/23 10:20:17;;;;;;;26.08;20.88;;;13.80;97.10;;;;;;5049354;28;20053;-69
2022/03/23 10:22:48;;;;;;;28.50;21.75;;;13.90;98.70;;;;;;5020293;28;20053;-70
2022/03/23 10:25:14;;;;;;;29.13;21.35;;;14.00;99.90;;;;;;5009493;28;20042;-70
2022/03/23 10:27:40;;;;;;;20.60;18.38;;;14.10;99.90;;;;;;5006360;28;20045;-70
2022/03/23 10:30:07;;;;;;;21.80;17.90;;;14.30;95.70;;;;;;5026757;28;20528;-71
2022/03/23 10:32:37;;;;;;;18.42;16.00;;;14.30;91.00;;;;;;5043013;28;20041;-71
2022/03/23 10:35:04;;;;;;;20.90;18.63;;;14.30;88.60;;;;;;5015954;28;20046;-70
2022/03/23 10:37:34;;;;;;;20.98;17.30;;;14.30;86.10;;;;;;5010002;28;20053;-71
2022/03/23 10:40:07;;;;;;;20.02;17.33;;;14.30;86.00;;;;;;5002632;28;20085;-71
2022/03/23 10:42:39;;;;;;;20.58;16.98;;;14.30;84.30;;;;;;5046893;28;20445;-79
2022/03/23 10:45:21;;;;;;;19.83;17.05;;;14.40;84.70;;;;;;5048735;28;20052;-72
2022/03/23 10:47:48;;;;;;;20.92;16.25;;;14.60;79.90;;;;;;5035201;28;20049;-69
2022/03/23 10:50:20;;;;;;;20.75;15.82;;;14.90;75.70;;;;;;5022060;28;20057;-69
2022/03/23 10:53:02;;;;;;;21.52;15.95;;;15.10;73.90;;;;;;5026916;28;20057;-72
2022/03/23 10:55:37;;;;;;;22.05;16.60;;;15.20;72.10;;;;;;5015050;28;20038;-71
2022/03/23 10:58:02;;;;;;;22.30;17.00;;;15.40;69.80;;;;;;5025260;28;20097;-74
2022/03/23 11:00:40;;;;;;;20.42;16.45;;;15.50;72.90;;;;;;5020241;28;20538;-76
2022/03/23 11:03:09;;;;;;;18.15;14.45;;;15.40;72.40;;;;;;5025518;28;20057;-75
2022/03/23 11:05:41;;;;;;;22.08;14.02;;;15.50;69.10;;;;;;4991719;28;20517;-74
2022/03/23 11:08:11;;;;;;;20.65;14.15;;;15.40;67.20;;;;;;5023490;28;20055;-73
2022/03/23 11:16:26;;;;;;;18.65;14.73;;;15.60;66.80;;;;;;5045553;28;20076;-76
2022/03/23 11:19:13;;;;;;;20.15;14.90;;;15.70;68.30;;;;;;5005129;28;20085;-74
2022/03/23 11:22:04;;;;;;;21.48;15.73;;;15.80;69.60;;;;;;5008376;28;20042;-74
2022/03/23 11:24:41;;;;;;;20.05;14.73;;;15.90;68.80;;;;;;5044736;28;20061;-74
2022/03/23 11:27:18;;;;;;;20.08;14.30;;;16.00;67.60;;;;;;5016337;28;20095;-74
2022/03/23 11:29:46;;;;;;;19.35;14.90;;;16.10;66.70;;;;;;5025872;28;20046;-74
2022/03/23 11:32:14;;;;;;;17.23;12.75;;;16.20;65.70;;;;;;5049537;28;20072;-73
2022/03/23 11:34:44;;;;;;;19.00;12.45;;;16.30;63.60;;;;;;5027453;28;20061;-74
2022/03/23 11:37:10;;;;;;;21.27;13.05;;;16.50;60.70;;;;;;5030062;28;20057;-73
2022/03/23 11:39:37;;;;;;;19.35;12.13;;;16.50;62.50;;;;;;5026595;28;20137;-73
2022/03/23 11:42:05;;;;;;;21.77;11.82;;;16.60;62.10;;;;;;5000643;28;20063;-72
2022/03/23 11:44:31;;;;;;;21.20;12.82;;;16.70;61.50;;;;;;5045394;28;20041;-73
2022/03/23 11:47:06;;;;;;;17.48;12.48;;;16.80;62.90;;;;;;5030090;28;20364;-73
2022/03/23 11:49:49;;;;;;;19.67;12.32;;;16.80;59.90;;;;;;5029501;28;20361;-73
2022/03/23 11:52:52;;;;;;;20.23;13.73;;;16.80;57.40;;;;;;5058321;28;20053;-73
2022/03/23 11:55:37;;;;;;;18.80;14.25;;;16.80;57.40;;;;;;5037005;28;20052;-73
2022/03/23 11:58:17;;;;;;;21.27;13.50;;;16.80;60.10;;;;;;5057445;28;20083;-73
2022/03/23 12:00:52;;;;;;;21.73;14.68;;;16.90;61.50;;;;;;5072085;28;20045;-73
2022/03/23 12:04:00;;;;;;;23.20;15.02;;;17.00;61.00;;;;;;5041000;28;20677;-73
2022/03/23 12:06:40;;;;;;;20.45;15.38;;;17.10;63.10;;;;;;5037344;28;20073;-73
2022/03/23 12:09:06;;;;;;;;;;;17.20;60.40;;;;;;5001604;28;20046;-74
2022/03/23 12:11:44;;;;;;;20.13;14.38;;;17.30;60.00;;;;;;5047329;28;19925;-74
2022/03/23 12:14:32;;;;;;;19.85;13.90;;;17.50;59.10;;;;;;5010129;28;20544;-74
2022/03/23 12:16:58;;;;;;;20.73;12.55;;;17.50;59.40;;;;;;5034084;28;20053;-72
2022/03/23 12:19:24;;;;;;;23.05;13.70;;;17.60;59.20;;;;;;5019352;28;20532;-72
2022/03/23 12:22:06;;;;;;;19.80;13.27;;;17.70;59.40;;;;;;5026875;28;20042;-72
2022/03/23 12:24:47;;;;;;;22.38;13.25;;;17.80;59.60;;;;;;5015787;28;20882;-74
2022/03/23 12:27:49;;;;;;;20.23;13.52;;;17.90;57.30;;;;;;5015189;28;20238;-74
2022/03/23 12:30:33;;;;;;;25.83;13.90;;;18.00;57.80;;;;;;5005640;28;20073;-74
2022/03/23 12:33:06;;;;;;;23.33;12.90;;;18.10;57.40;;;;;;5008030;28;20057;-74
2022/03/23 12:35:33;;;;;;;21.20;12.38;;;18.30;58.10;;;;;;5007699;28;20049;-73
2022/03/23 12:38:02;;;;;;;23.50;12.95;;;18.30;58.20;;;;;;5016679;28;20049;-73
2022/03/23 12:40:43;;;;;;;28.02;13.70;;;18.40;57.70;;;;;;5012082;28;20349;-74
2022/03/23 12:43:09;;;;;;;18.67;11.85;;;18.60;54.80;;;;;;5010355;28;20049;-74
2022/03/23 12:45:39;;;;;;;22.40;12.70;;;18.60;56.10;;;;;;4990515;28;20038;-74
2022/03/23 12:57:49;;;;;;;24.10;11.60;;;18.80;56.30;;;;;;4996360;28;20051;-73
2022/03/23 12:59:16;;;;;;;23.20;11.77;;;19.20;53.80;;;;;;5008697;28;20038;-76
2022/03/23 13:01:42;;;;;;;22.02;11.52;;;19.40;54.60;;;;;;5011102;28;20262;-74
2022/03/23 13:04:08;;;;;;;17.33;11.00;;;19.70;53.50;;;;;;5028191;28;20702;-73
2022/03/23 13:06:37;;;;;;;24.23;11.65;;;19.90;51.80;;;;;;4994045;28;20360;-73
2022/03/23 13:09:09;;;;;;;26.55;11.40;;;20.00;53.00;;;;;;5019545;28;20041;-73